createdAt,value
2023-03-17T00:03:02.106Z,64.60
2023-03-17T00:09:05.571Z,65.07
2023-03-17T00:15:08.995Z,65.40
2023-03-17T00:21:16.488Z,65.28
2023-03-17T00:27:18.959Z,65.45
2023-03-17T00:33:24.409Z,65.56
2023-03-17T00:39:27.885Z,65.67
2023-03-17T00:45:30.350Z,65.96
2023-03-17T00:51:35.201Z,66.30
2023-03-17T00:57:42.315Z,66.31
2023-03-17T01:03:47.787Z,66.35
2023-03-17T01:09:51.236Z,66.26
2023-03-17T01:15:56.225Z,66.52
2023-03-17T01:22:00.185Z,66.27
2023-03-17T01:28:02.605Z,66.76
2023-03-17T01:34:07.085Z,66.85
2023-03-17T01:40:16.550Z,67.31
2023-03-17T01:46:35.075Z,67.19
2023-03-17T01:52:40.604Z,67.40
2023-03-17T01:58:46.050Z,67.56
2023-03-17T02:04:51.518Z,67.35
2023-03-17T02:10:58.015Z,67.72
2023-03-17T02:17:01.577Z,67.43
2023-03-17T02:23:05.950Z,67.42
2023-03-17T02:29:10.388Z,67.17
2023-03-17T02:35:12.876Z,67.28
2023-03-17T02:41:15.304Z,67.53
2023-03-17T02:47:17.867Z,67.99
2023-03-17T02:53:21.243Z,68.21
2023-03-17T02:59:25.804Z,67.74
2023-03-17T03:05:29.185Z,67.47
2023-03-17T03:11:33.453Z,67.43
2023-03-17T03:17:40.279Z,67.27
2023-03-17T03:23:47.837Z,67.19
2023-03-17T03:29:50.137Z,67.76
2023-03-17T03:35:52.556Z,67.57
2023-03-17T03:42:03.098Z,67.63
2023-03-17T03:48:11.816Z,68.02
2023-03-17T03:54:22.005Z,68.52
2023-03-17T04:00:26.446Z,68.59
2023-03-17T04:06:28.964Z,68.62
2023-03-17T04:12:32.430Z,68.34
2023-03-17T04:18:38.013Z,68.48
2023-03-17T04:24:40.369Z,68.99
2023-03-17T04:30:42.820Z,69.06
2023-03-17T04:36:49.333Z,68.97
2023-03-17T04:42:51.772Z,68.90
2023-03-17T04:48:54.243Z,68.62
2023-03-17T04:54:57.009Z,68.49
2023-03-17T05:01:06.102Z,68.62
2023-03-17T05:07:10.677Z,68.12
2023-03-17T05:13:15.468Z,68.13
2023-03-17T05:19:18.636Z,67.80
2023-03-17T05:25:21.037Z,67.64
2023-03-17T05:31:27.606Z,67.12
2023-03-17T05:37:29.954Z,66.57
2023-03-17T05:43:32.430Z,65.68
2023-03-17T05:49:34.946Z,64.97
2023-03-17T05:55:37.345Z,64.07
2023-03-17T06:01:39.783Z,62.80
2023-03-17T06:07:54.696Z,63.15
2023-03-17T06:13:58.762Z,61.74
2023-03-17T06:20:02.225Z,61.76
2023-03-17T06:26:04.730Z,61.33
2023-03-17T06:32:19.985Z,61.22
2023-03-17T06:38:24.702Z,60.87
2023-03-17T06:44:29.170Z,60.22
2023-03-17T06:50:31.666Z,61.13
2023-03-17T06:56:34.128Z,60.98
2023-03-17T07:02:36.578Z,60.26
2023-03-17T07:08:42.423Z,59.53
2023-03-17T07:14:48.448Z,60.30
2023-03-17T07:20:50.991Z,58.73
2023-03-17T07:26:53.405Z,59.88
2023-03-17T07:32:57.948Z,59.85
2023-03-17T07:39:06.186Z,57.71
2023-03-17T07:45:11.828Z,57.22
2023-03-17T07:51:22.313Z,55.56
2023-03-17T07:57:28.849Z,56.90
2023-03-17T08:03:35.323Z,56.32
2023-03-17T08:10:07.059Z,54.40
2023-03-17T08:16:14.129Z,53.61
2023-03-17T08:22:29.367Z,55.19
2023-03-17T08:28:37.340Z,50.76
2023-03-17T08:35:37.046Z,52.16
2023-03-17T08:41:54.481Z,49.64
2023-03-17T08:47:58.007Z,49.57
2023-03-17T08:54:03.252Z,49.34
2023-03-17T09:00:24.469Z,49.43
2023-03-17T09:06:27.462Z,44.72
2023-03-17T09:12:32.210Z,46.09
2023-03-17T09:18:39.437Z,43.88
2023-03-17T09:24:50.127Z,47.37
2023-03-17T09:30:58.561Z,45.73
2023-03-17T09:37:03.796Z,42.87
2023-03-17T09:44:03.712Z,47.61
2023-03-17T09:50:16.215Z,44.18
2023-03-17T09:56:28.498Z,43.93
2023-03-17T10:02:40.548Z,42.78
2023-03-17T10:15:50.747Z,40.88
2023-03-17T10:22:27.700Z,36.80
2023-03-17T10:28:49.324Z,36.05
2023-03-17T10:34:51.993Z,35.27
2023-03-17T10:41:06.245Z,35.68
2023-03-17T10:47:23.844Z,35.91
2023-03-17T10:53:43.737Z,34.44
2023-03-17T11:00:31.205Z,31.65
2023-03-17T11:06:47.494Z,35.73
2023-03-17T11:13:04.084Z,32.34
2023-03-17T11:20:03.736Z,30.57
2023-03-17T11:26:44.351Z,34.36
2023-03-17T11:33:47.453Z,34.92
2023-03-17T11:40:00.554Z,33.99
2023-03-17T11:46:33.249Z,31.70
2023-03-17T11:53:04.871Z,33.39
2023-03-17T11:59:39.350Z,35.38
2023-03-17T12:06:11.778Z,34.09
2023-03-17T12:12:41.661Z,35.04
2023-03-17T12:19:06.619Z,33.72
2023-03-17T12:25:21.455Z,35.07
2023-03-17T12:32:06.541Z,34.04
2023-03-17T12:38:36.109Z,33.82
2023-03-17T12:44:54.527Z,33.63
2023-03-17T12:51:21.348Z,33.08
2023-03-17T12:57:35.209Z,33.76
2023-03-17T13:04:27.252Z,32.71
2023-03-17T13:18:10.253Z,33.95
2023-03-17T13:24:36.239Z,33.84
2023-03-17T13:39:34.164Z,31.91
2023-03-17T13:45:47.841Z,34.12
2023-03-17T13:52:33.716Z,32.99
2023-03-17T13:59:23.367Z,31.81
2023-03-17T14:05:38.105Z,32.00
2023-03-17T14:19:42.237Z,32.52
2023-03-17T14:26:51.487Z,31.95
2023-03-17T14:33:01.554Z,32.33
2023-03-17T14:52:38.209Z,31.79
2023-03-17T14:58:50.085Z,32.32
2023-03-17T15:12:01.825Z,32.47
2023-03-17T15:18:27.428Z,32.90
2023-03-17T15:24:53.448Z,32.94
2023-03-17T15:38:30.318Z,32.98
2023-03-17T15:59:26.346Z,34.35
2023-03-17T18:43:42.476Z,42.01
2023-03-17T18:49:45.446Z,42.76
2023-03-17T19:11:29.777Z,44.32
2023-03-17T19:16:22.206Z,44.82
2023-03-17T19:23:04.858Z,44.85
2023-03-17T19:29:27.619Z,45.17
2023-03-17T19:35:46.155Z,45.13
2023-03-17T19:41:58.197Z,45.73
2023-03-17T19:48:14.069Z,45.49
2023-03-17T20:22:45.123Z,45.12
